WetterOnline ( https://www.wetteronline.de )

Wetter aktuell Skive

Aktuelles Wetter: Karup (53m)

6-stündlich | Neueste Meldungen
Ortszeit Temperatur Wetter
Do, 26.11. 19:00 5.3° C leicht bewölkt
Do, 26.11. 13:00 8.5° C wolkig
Do, 26.11. 7:00 6.8° C bewölkt
Do, 26.11. 1:00 8.4° C bedeckt
Mi, 25.11. 19:00 8.2° C bedeckt
Mi, 25.11. 13:00 7.6° C bedeckt
Mi, 25.11. 7:00 7.2° C bedeckt
Mi, 25.11. 1:00 9.6° C bedeckt
Ortszeit Temperatur Wetter
Do, 26.11. 19:00 5.3° C leicht bewölkt
Do, 26.11. 18:50 5° C bewölkt
Do, 26.11. 18:20 6° C bewölkt
Do, 26.11. 18:00 5.9° C wolkig
Do, 26.11. 17:50 6° C bewölkt
Do, 26.11. 17:20 6° C leicht bewölkt
Do, 26.11. 17:00 5.7° C leicht bewölkt
Do, 26.11. 16:20 7° C bewölkt
Do, 26.11. 16:00 7.1° C wolkig
Ortszeit Relative Feuchte Sichtweite
Do, 26.11. 19:00 94% 28 km
Do, 26.11. 13:00 84% 40 km
Do, 26.11. 7:00 96% 35 km
Do, 26.11. 1:00 92% 6 km
Mi, 25.11. 19:00 89% 10 km
Mi, 25.11. 13:00 93% 6 km
Mi, 25.11. 7:00 91% 7 km
Mi, 25.11. 1:00 89% 11 km
Ortszeit Relative Feuchte Sichtweite
Do, 26.11. 19:00 94% 28 km
Do, 26.11. 18:50 93% >10 km
Do, 26.11. 18:20 93% >10 km
Do, 26.11. 18:00 93% 40 km
Do, 26.11. 17:50 93% >10 km
Do, 26.11. 17:20 93% >10 km
Do, 26.11. 17:00 89% 40 km
Do, 26.11. 16:20 87% >10 km
Do, 26.11. 16:00 85% 35 km
Ortszeit Niederschlagsmenge Niederschlagsart
Do, 26.11. 19:00 0.0 l/m2 in 3 Std. -
Do, 26.11. 13:00 0.0 l/m2 in 3 Std. -
Do, 26.11. 7:00 0.2 l/m2 in 3 Std. Schauer
Do, 26.11. 1:00 0.0 l/m2 in 3 Std. -
Mi, 25.11. 19:00 0.0 l/m2 in 3 Std. -
Mi, 25.11. 13:00 0.0 l/m2 in 3 Std. -
Mi, 25.11. 7:00 0.0 l/m2 in 3 Std. -
Mi, 25.11. 1:00 0.0 l/m2 in 3 Std. -
Ortszeit Niederschlagsmenge Niederschlagsart
Do, 26.11. 19:00 0.0 l/m2 in 1 Std. -
Do, 26.11. 18:50 keine Meldung -
Do, 26.11. 18:20 keine Meldung -
Do, 26.11. 18:00 0.0 l/m2 in 1 Std. -
Do, 26.11. 17:50 keine Meldung -
Do, 26.11. 17:20 keine Meldung -
Do, 26.11. 17:00 0.0 l/m2 in 1 Std. -
Do, 26.11. 16:20 keine Meldung -
Do, 26.11. 16:00 0.0 l/m2 in 1 Std. -
Ortszeit Stärke Spitze Richtung
km/h Bft. km/h Grad Sektor
Do, 26.11. 19:00 9 2 - 250° W
Do, 26.11. 13:00 20 4 - 270° W
Do, 26.11. 7:00 11 2 - 270° W
Do, 26.11. 1:00 15 3 - 200° S
Mi, 25.11. 19:00 11 2 - 200° S
Mi, 25.11. 13:00 13 3 - 190° S
Mi, 25.11. 7:00 17 3 - 190° S
Mi, 25.11. 1:00 20 4 - 210° SW
Ortszeit Stärke Spitze Richtung
km/h Bft. km/h Grad Sektor
Do, 26.11. 19:00 9 2 - 250° W
Do, 26.11. 18:50 9 2 - 250° W
Do, 26.11. 18:20 9 2 - 250° W
Do, 26.11. 18:00 11 2 - 250° W
Do, 26.11. 17:50 13 3 - 260° W
Do, 26.11. 17:20 11 2 - 260° W
Do, 26.11. 17:00 11 2 - 250° W
Do, 26.11. 16:20 11 2 - 250° W
Do, 26.11. 16:00 11 2 - 250° W
Ortszeit Untergrenze Bedeckung Gattung
total tief tief mittel hoch
Do, 26.11. 19:00 1080 m 2/8 2/8 - - -
Do, 26.11. 13:00 1020 m 5/8 5/8 - - -
Do, 26.11. 7:00 420 m 7/8 7/8 - - -
Do, 26.11. 1:00 240 m 8/8 8/8 - - -
Mi, 25.11. 19:00 360 m 8/8 8/8 - - -
Mi, 25.11. 13:00 330 m 8/8 8/8 - - -
Mi, 25.11. 7:00 270 m 8/8 8/8 - - -
Mi, 25.11. 1:00 330 m 8/8 8/8 - - -
Ortszeit Bedeckungsgrad in Achtel und Wolkenuntergrenze
Do, 26.11. 19:00 2(1080m)
Do, 26.11. 18:50 5-7(1080m)
Do, 26.11. 18:20 5-7(1050m)
Do, 26.11. 18:00 5(1050m)
Do, 26.11. 17:50 5-7(1080m)
Do, 26.11. 17:20 3-4(1050m)
Do, 26.11. 17:00 2(990m)
Do, 26.11. 16:20 5-7(660m) 5-7(1140m)
Do, 26.11. 16:00 2(540m) 6(870m)
Ortszeit Luftdruck NN (hPa) Tendenz (hPa in 3 Std.)
Do, 26.11. 19:00 1018 + 0,7
Do, 26.11. 13:00 1016 + 0,5
Do, 26.11. 7:00 1014 + 1,2
Do, 26.11. 1:00 1013 - 0,1
Mi, 25.11. 19:00 1013 + 0,6
Mi, 25.11. 13:00 1013 - 0,6
Mi, 25.11. 7:00 1013 - 0,8
Mi, 25.11. 1:00 1014 - 0,6
Ortszeit Luftdruck NN (hPa) Tendenz (hPa in 3 Std.)
Do, 26.11. 19:00 1018 + 0,7
Do, 26.11. 18:50 1018 keine Meldung
Do, 26.11. 18:20 1017 keine Meldung
Do, 26.11. 18:00 1018 + 0,7
Do, 26.11. 17:50 1017 keine Meldung
Do, 26.11. 17:20 1017 keine Meldung
Do, 26.11. 17:00 1018 + 0,7
Do, 26.11. 16:20 1017 keine Meldung
Do, 26.11. 16:00 1017 + 0,8
Ortszeit Schneehöhe (cm)
Do, 26.11. 19:00 -
Do, 26.11. 13:00 -
Do, 26.11. 7:00 -
Do, 26.11. 1:00 -
Mi, 25.11. 19:00 -
Mi, 25.11. 13:00 -
Mi, 25.11. 7:00 -
Mi, 25.11. 1:00 -
Ortszeit Schneehöhe (cm)
Do, 26.11. 19:00 -
Do, 26.11. 18:50 -
Do, 26.11. 18:20 -
Do, 26.11. 18:00 -
Do, 26.11. 17:50 -
Do, 26.11. 17:20 -
Do, 26.11. 17:00 -
Do, 26.11. 16:20 -
Do, 26.11. 16:00 -
Link zu dieser Seite / Seite empfehlen

Das Wetter in ...